Time;durP1;ratioP1;P1;durP2;ratioP2;P2;SDS_P1;SDS_P2;PMS_P1;PMS_P2;Temp;Humidity;BMP_temperature;BMP_pressure;BME280_temperature;BME280_humidity;BME280_pressure;Samples;Min_cycle;Max_cycle;Signal;HPM_P1;HPM_P2
2023/05/30 00:01:25;;;;;;;16.97;2.37;;;;;;;9.12;92.76;102493.72;4944596;29;20314;-92
2023/05/30 00:03:50;;;;;;;15.57;2.50;;;;;;;9.04;93.53;102486.69;4951677;28;20414;-91
2023/05/30 00:06:16;;;;;;;16.63;2.20;;;;;;;9.10;93.03;102506.47;4936381;28;20036;-91
2023/05/30 00:08:43;;;;;;;9.43;1.80;;;;;;;9.04;93.57;102504.63;4933365;29;20024;-92
2023/05/30 00:11:10;;;;;;;14.77;2.10;;;;;;;8.98;93.73;102500.91;4934315;29;20031;-93
2023/05/30 00:13:36;;;;;;;22.23;2.55;;;;;;;8.79;96.28;102491.84;4949161;28;20451;-91
2023/05/30 00:16:04;;;;;;;11.90;1.83;;;;;;;8.89;94.82;102518.19;4952512;28;20027;-91
2023/05/30 00:18:34;;;;;;;11.33;2.10;;;;;;;8.84;96.22;102504.63;4936012;29;20676;-92
2023/05/30 00:21:05;;;;;;;16.80;1.75;;;;;;;8.75;97.33;102501.31;4953178;28;20031;-92
2023/05/30 00:23:31;;;;;;;12.50;2.28;;;;;;;8.77;97.14;102508.09;4952053;29;20065;-92
2023/05/30 00:25:57;;;;;;;13.10;2.00;;;;;;;8.72;97.71;102509.75;4951902;29;20044;-92
2023/05/30 00:28:23;;;;;;;11.15;2.33;;;;;;;8.66;97.85;102508.72;4952218;29;20039;-90
2023/05/30 00:30:48;;;;;;;13.48;1.80;;;;;;;8.55;97.91;102490.59;4951721;28;20392;-91
2023/05/30 00:33:14;;;;;;;9.60;1.70;;;;;;;8.54;98.98;102505.81;4951320;29;20027;-92
2023/05/30 00:35:39;;;;;;;15.63;2.20;;;;;;;8.47;100.00;102507.59;4951430;29;20019;-91
2023/05/30 00:38:05;;;;;;;13.98;1.95;;;;;;;8.50;100.00;102515.25;4962181;28;20430;-91
2023/05/30 00:40:30;;;;;;;10.60;1.87;;;;;;;8.48;99.58;102506.63;4953407;28;20031;-92
2023/05/30 00:42:55;;;;;;;19.27;2.20;;;;;;;8.34;99.99;102495.03;4972179;28;20022;-93
2023/05/30 00:45:21;;;;;;;14.90;2.07;;;;;;;8.48;100.00;102517.31;4952232;28;20119;-91
2023/05/30 00:47:48;;;;;;;14.38;2.35;;;;;;;8.41;100.00;102514.59;4939515;28;20055;-91
2023/05/30 00:50:15;;;;;;;24.23;2.70;;;;;;;8.34;100.00;102516.41;4915509;29;20447;-92
2023/05/30 00:52:41;;;;;;;13.50;2.63;;;;;;;8.27;100.00;102507.56;4917543;28;20295;-92
2023/05/30 00:55:06;;;;;;;15.70;2.20;;;;;;;8.27;100.00;102518.25;4942515;28;20449;-91
2023/05/30 00:57:33;;;;;;;11.25;1.98;;;;;;;8.26;100.00;102525.41;4932389;29;20505;-92
2023/05/30 01:00:00;;;;;;;21.48;2.50;;;;;;;8.26;100.00;102525.41;4938942;28;20033;-90
2023/05/30 01:02:25;;;;;;;15.07;2.60;;;;;;;8.14;100.00;102527.03;4941956;28;20034;-90
2023/05/30 01:04:51;;;;;;;16.10;2.37;;;;;;;8.14;100.00;102527.84;4970621;28;20030;-90
2023/05/30 01:07:16;;;;;;;15.00;2.50;;;;;;;8.12;100.00;102527.25;4960792;28;20042;-89
2023/05/30 01:09:42;;;;;;;12.75;2.60;;;;;;;8.04;100.00;102522.88;4954007;28;20447;-89
2023/05/30 01:12:16;;;;;;;16.73;2.13;;;;;;;8.04;100.00;102530.88;4974206;28;20031;-89
2023/05/30 01:15:06;;;;;;;17.08;2.30;;;;;;;8.03;100.00;102528.41;4957988;28;20031;-89
2023/05/30 01:17:54;;;;;;;14.50;1.85;;;;;;;7.97;100.00;102522.03;4954347;28;20651;-91
2023/05/30 01:20:24;;;;;;;20.50;2.40;;;;;;;7.93;100.00;102520.78;4939257;28;20047;-90
2023/05/30 01:23:31;;;;;;;12.88;2.28;;;;;;;7.91;100.00;102527.34;4952639;28;20102;-90
2023/05/30 01:26:07;;;;;;;15.43;2.10;;;;;;;7.89;100.00;102524.84;4931010;28;20043;-90
2023/05/30 01:28:36;;;;;;;11.50;2.10;;;;;;;7.86;100.00;102519.91;4954781;29;20683;-88
2023/05/30 01:31:02;;;;;;;19.98;1.88;;;;;;;7.88;100.00;102521.38;4964194;28;20035;-89
2023/05/30 01:33:30;;;;;;;10.85;2.15;;;;;;;7.83;100.00;102518.47;4973831;28;20034;-90
2023/05/30 01:35:55;;;;;;;11.98;2.00;;;;;;;7.87;100.00;102516.22;4953198;28;20068;-90
2023/05/30 01:38:20;;;;;;;15.43;2.40;;;;;;;7.77;100.00;102513.09;4973693;28;20122;-90
2023/05/30 01:40:51;;;;;;;12.90;2.50;;;;;;;7.79;100.00;102532.41;4955540;28;20035;-90
2023/05/30 01:43:26;;;;;;;12.38;2.30;;;;;;;7.77;100.00;102537.13;4944913;28;20101;-90
2023/05/30 01:45:58;;;;;;;17.77;2.30;;;;;;;7.71;100.00;102534.22;4941229;28;20404;-90
2023/05/30 01:48:48;;;;;;;12.63;1.95;;;;;;;7.68;100.00;102528.44;4949043;29;20027;-89
2023/05/30 01:51:18;;;;;;;16.33;2.38;;;;;;;7.66;100.00;102539.34;4953126;28;20023;-89
2023/05/30 01:53:50;;;;;;;13.75;2.30;;;;;;;7.63;100.00;102537.06;4935683;29;20038;-91
2023/05/30 01:56:16;;;;;;;15.45;2.65;;;;;;;7.61;100.00;102543.59;4950728;28;20032;-90
2023/05/30 01:58:45;;;;;;;14.13;2.30;;;;;;;7.58;100.00;102540.28;4926637;29;20079;-89
2023/05/30 02:01:11;;;;;;;20.48;3.03;;;;;;;7.62;100.00;102553.25;4934211;29;20024;-89
2023/05/30 02:03:37;;;;;;;14.43;2.40;;;;;;;7.63;100.00;102546.88;4935007;29;20027;-91
2023/05/30 02:06:02;;;;;;;16.17;2.70;;;;;;;7.59;100.00;102543.78;4916964;29;20288;-90
2023/05/30 02:08:28;;;;;;;18.37;2.37;;;;;;;7.56;100.00;102547.69;4916029;29;20025;-91
2023/05/30 02:10:53;;;;;;;14.10;2.60;;;;;;;7.57;100.00;102553.81;4930617;29;20403;-90
2023/05/30 02:13:18;;;;;;;12.93;2.37;;;;;;;7.52;100.00;102550.91;4933794;29;20399;-91
2023/05/30 02:15:44;;;;;;;15.07;2.42;;;;;;;7.52;100.00;102561.59;4924451;29;20091;-90
2023/05/30 02:18:10;;;;;;;14.97;2.70;;;;;;;7.48;100.00;102560.34;4932167;29;20052;-89
2023/05/30 02:20:36;;;;;;;20.90;2.80;;;;;;;7.46;100.00;102563.19;4933287;29;20038;-90
2023/05/30 02:23:01;;;;;;;21.27;3.10;;;;;;;7.41;100.00;102558.44;4934742;29;20058;-90
2023/05/30 02:25:27;;;;;;;15.53;3.07;;;;;;;7.38;100.00;102561.50;4934104;29;20291;-90
2023/05/30 02:27:52;;;;;;;21.33;3.00;;;;;;;7.36;100.00;102558.19;4933422;29;20031;-90
2023/05/30 02:30:17;;;;;;;19.43;3.10;;;;;;;7.27;100.00;102552.19;4934438;29;20039;-91
2023/05/30 02:32:43;;;;;;;16.85;2.83;;;;;;;7.30;100.00;102551.00;4932792;29;20067;-91
2023/05/30 02:35:09;;;;;;;14.50;2.80;;;;;;;7.27;100.00;102549.50;4933590;29;20055;-91
2023/05/30 02:37:35;;;;;;;17.50;2.45;;;;;;;7.28;100.00;102548.50;4934337;29;20028;-90
2023/05/30 02:40:00;;;;;;;14.30;2.80;;;;;;;7.25;100.00;102554.22;4934101;29;20043;-90
2023/05/30 02:42:25;;;;;;;18.37;2.80;;;;;;;7.21;100.00;102560.13;4933511;29;20699;-90
2023/05/30 02:44:51;;;;;;;17.80;2.72;;;;;;;7.17;100.00;102553.53;4926875;29;20399;-90
2023/05/30 02:47:16;;;;;;;20.77;3.00;;;;;;;7.17;100.00;102561.53;4922201;29;20064;-90
2023/05/30 02:49:41;;;;;;;15.23;2.67;;;;;;;7.12;100.00;102546.09;4933143;29;20039;-90
2023/05/30 02:52:07;;;;;;;16.53;2.87;;;;;;;7.16;100.00;102555.38;4933691;29;20040;-90
2023/05/30 02:54:33;;;;;;;12.95;2.58;;;;;;;7.12;100.00;102544.25;4933436;29;20116;-90
2023/05/30 02:56:58;;;;;;;17.80;3.50;;;;;;;7.11;100.00;102547.97;4940014;29;20512;-91
2023/05/30 02:59:24;;;;;;;14.10;3.05;;;;;;;7.14;100.00;102557.41;4950382;28;20035;-91
2023/05/30 03:01:49;;;;;;;20.63;2.97;;;;;;;7.13;100.00;102556.56;4943569;28;20039;-92
2023/05/30 03:04:14;;;;;;;15.30;2.87;;;;;;;7.11;100.00;102547.97;4951086;28;20035;-90
2023/05/30 03:06:40;;;;;;;20.80;3.20;;;;;;;7.07;100.00;102549.34;4952824;29;20114;-91
2023/05/30 03:09:05;;;;;;;20.23;2.92;;;;;;;7.01;100.00;102550.13;4952358;28;20078;-93
2023/05/30 03:11:31;;;;;;;16.73;3.27;;;;;;;7.00;100.00;102548.47;4951600;28;20035;-92
2023/05/30 03:13:56;;;;;;;12.40;2.73;;;;;;;6.97;100.00;102548.84;4946899;28;20035;-92
2023/05/30 03:16:21;;;;;;;17.23;3.17;;;;;;;6.99;100.00;102560.13;4951682;28;20046;-91
2023/05/30 03:18:49;;;;;;;16.87;3.00;;;;;;;7.07;100.00;102565.34;4953049;29;20027;-92
2023/05/30 03:21:15;;;;;;;13.48;2.63;;;;;;;7.16;100.00;102568.72;4950178;28;20475;-91
2023/05/30 03:23:40;;;;;;;19.60;3.70;;;;;;;7.26;100.00;102579.06;4952686;29;20031;-90
2023/05/30 03:26:06;;;;;;;19.70;3.05;;;;;;;7.33;100.00;102573.75;4940900;28;20030;-91
2023/05/30 03:28:32;;;;;;;17.92;3.05;;;;;;;7.42;100.00;102573.44;4934357;28;20051;-92
2023/05/30 03:30:57;;;;;;;13.77;3.17;;;;;;;7.50;100.00;102566.28;4953004;28;20538;-92
2023/05/30 03:33:23;;;;;;;15.73;2.93;;;;;;;7.53;100.00;102573.91;4951808;28;20019;-92
2023/05/30 03:35:48;;;;;;;12.00;2.90;;;;;;;7.64;100.00;102581.41;4950709;28;20103;-91
2023/05/30 03:38:14;;;;;;;16.33;3.83;;;;;;;7.65;100.00;102585.72;4950085;28;20049;-91
2023/05/30 03:40:39;;;;;;;24.90;3.37;;;;;;;7.69;100.00;102580.81;4950884;28;20027;-92
2023/05/30 03:43:04;;;;;;;14.13;2.60;;;;;;;7.71;100.00;102592.09;4971949;28;20030;-91
2023/05/30 03:45:30;;;;;;;18.00;3.60;;;;;;;7.66;100.00;102581.19;4950392;28;20035;-92
2023/05/30 03:47:55;;;;;;;16.90;3.20;;;;;;;7.71;100.00;102592.91;4952472;29;20067;-91
2023/05/30 03:50:20;;;;;;;17.60;3.37;;;;;;;7.71;100.00;102590.25;4946768;28;21636;-92
2023/05/30 03:52:46;;;;;;;17.37;3.40;;;;;;;7.72;100.00;102593.75;4943575;28;20027;-91
2023/05/30 03:55:12;;;;;;;21.25;3.45;;;;;;;7.76;100.00;102597.66;4937503;28;20042;-92
2023/05/30 03:57:37;;;;;;;18.40;2.77;;;;;;;7.81;100.00;102594.44;4944017;28;20113;-91
2023/05/30 04:00:03;;;;;;;15.60;3.70;;;;;;;7.84;100.00;102597.53;4944833;28;20371;-91
2023/05/30 04:02:28;;;;;;;16.33;3.03;;;;;;;7.92;100.00;102606.41;4945468;28;20049;-91
2023/05/30 04:04:55;;;;;;;17.47;2.90;;;;;;;7.93;100.00;102598.19;4956457;28;20043;-90
2023/05/30 04:07:21;;;;;;;14.50;3.00;;;;;;;7.96;100.00;102591.63;4965209;28;20310;-90
2023/05/30 04:09:46;;;;;;;14.27;3.13;;;;;;;8.08;100.00;102602.56;4968318;28;20564;-91
2023/05/30 04:12:12;;;;;;;15.27;3.33;;;;;;;8.16;100.00;102595.22;4979330;28;20112;-90
2023/05/30 04:14:38;;;;;;;15.13;3.35;;;;;;;8.23;100.00;102589.91;4965052;28;20023;-92
2023/05/30 04:17:04;;;;;;;15.07;2.83;;;;;;;8.33;100.00;102598.41;4963839;28;20027;-90
2023/05/30 04:19:29;;;;;;;20.52;3.13;;;;;;;8.36;100.00;102604.38;4951884;28;20055;-90
2023/05/30 04:21:54;;;;;;;16.67;3.20;;;;;;;8.46;100.00;102599.47;4952347;29;20039;-91
2023/05/30 04:24:21;;;;;;;13.77;3.17;;;;;;;8.51;100.00;102599.72;4955527;28;20541;-92
2023/05/30 04:26:48;;;;;;;16.95;3.22;;;;;;;8.58;100.00;102597.88;4949647;28;20494;-92
2023/05/30 04:29:14;;;;;;;21.88;3.10;;;;;;;8.64;100.00;102605.09;4951129;28;20075;-91
2023/05/30 04:31:39;;;;;;;15.57;3.10;;;;;;;8.72;100.00;102597.94;4952255;29;20031;-92
2023/05/30 04:34:05;;;;;;;20.57;3.27;;;;;;;8.80;100.00;102587.06;4952192;28;20488;-93
2023/05/30 04:36:32;;;;;;;23.35;3.78;;;;;;;8.88;100.00;102592.22;4963180;28;20031;-91
2023/05/30 04:38:58;;;;;;;17.88;3.30;;;;;;;8.98;100.00;102596.34;4934117;29;20047;-91
2023/05/30 04:41:24;;;;;;;13.25;2.95;;;;;;;9.09;100.00;102596.56;4951738;28;20744;-91
2023/05/30 04:43:52;;;;;;;16.50;3.43;;;;;;;9.20;100.00;102611.19;4964957;28;20054;-92
2023/05/30 04:46:21;;;;;;;20.17;3.45;;;;;;;9.31;100.00;102592.88;4939114;28;20110;-91
2023/05/30 04:48:48;;;;;;;19.40;3.80;;;;;;;9.41;100.00;102601.31;4954833;29;20082;-92
2023/05/30 04:51:14;;;;;;;15.52;3.35;;;;;;;9.48;100.00;102607.50;4964618;28;20083;-91
2023/05/30 04:53:40;;;;;;;19.60;3.28;;;;;;;9.47;100.00;102597.81;4976745;28;20371;-91
2023/05/30 04:56:05;;;;;;;19.90;3.50;;;;;;;9.45;100.00;102597.19;4959945;29;20038;-92
2023/05/30 04:58:31;;;;;;;20.30;3.57;;;;;;;9.36;100.00;102593.06;4961059;28;20046;-92
2023/05/30 05:00:58;;;;;;;17.53;2.97;;;;;;;9.51;100.00;102590.19;4971698;28;20817;-91
2023/05/30 05:03:24;;;;;;;23.33;3.92;;;;;;;9.55;100.00;102602.94;4974791;28;20031;-91
2023/05/30 05:05:50;;;;;;;14.05;3.80;;;;;;;9.55;100.00;102594.09;4946447;29;20036;-89
2023/05/30 05:08:16;;;;;;;18.23;3.53;;;;;;;9.63;100.00;102593.06;4950651;29;20032;-90
2023/05/30 05:10:41;;;;;;;17.63;3.63;;;;;;;9.63;100.00;102593.88;4969400;28;20039;-91
2023/05/30 05:13:06;;;;;;;20.70;3.83;;;;;;;9.68;100.00;102601.28;4959730;28;20043;-91
2023/05/30 05:15:32;;;;;;;19.43;3.57;;;;;;;9.87;100.00;102604.97;4957583;29;20086;-90
2023/05/30 05:17:58;;;;;;;17.08;3.58;;;;;;;9.96;100.00;102592.97;4971346;28;20061;-94
2023/05/30 05:20:24;;;;;;;18.60;3.30;;;;;;;10.10;100.00;102587.59;4973302;28;20023;-96
2023/05/30 05:22:50;;;;;;;18.13;3.67;;;;;;;10.29;100.00;102600.09;4958615;28;20114;-90
2023/05/30 05:25:15;;;;;;;15.73;4.03;;;;;;;10.36;100.00;102594.72;4957775;28;20046;-94
2023/05/30 05:27:41;;;;;;;20.80;3.80;;;;;;;10.45;100.00;102601.50;4960915;28;20041;-95
2023/05/30 05:30:08;;;;;;;16.00;3.70;;;;;;;10.57;100.00;102608.88;4959705;28;20486;-95
2023/05/30 05:32:36;;;;;;;16.43;3.67;;;;;;;10.61;98.08;102604.72;4956755;28;20028;-93
2023/05/30 05:35:02;;;;;;;18.17;3.92;;;;;;;10.58;98.43;102600.59;4954839;28;20051;-93
2023/05/30 05:37:27;;;;;;;16.38;4.30;;;;;;;10.63;98.50;102616.03;4957482;28;20031;-94
2023/05/30 05:39:52;;;;;;;16.53;4.47;;;;;;;10.81;98.02;102609.13;4965157;28;20109;-93
2023/05/30 05:42:18;;;;;;;11.40;3.50;;;;;;;11.12;96.72;102607.50;4954052;28;20058;-93
2023/05/30 05:44:43;;;;;;;18.63;3.80;;;;;;;11.41;93.91;102608.69;4954771;28;20031;-93
2023/05/30 05:47:09;;;;;;;14.00;3.03;;;;;;;11.45;92.98;102598.38;4955740;29;20027;-92
2023/05/30 05:49:34;;;;;;;16.03;3.77;;;;;;;11.34;92.88;102600.72;4955121;28;20062;-92
2023/05/30 05:51:59;;;;;;;16.00;3.30;;;;;;;11.19;93.83;102594.84;4956553;28;20043;-93
2023/05/30 05:54:25;;;;;;;17.83;3.75;;;;;;;11.27;93.85;102613.38;4949046;28;20036;-93
2023/05/30 05:56:50;;;;;;;17.53;3.43;;;;;;;11.36;93.45;102614.72;4937997;29;20484;-93
2023/05/30 05:59:15;;;;;;;15.93;3.70;;;;;;;11.34;91.29;102618.69;4963695;28;20025;-94
2023/05/30 06:01:42;;;;;;;14.70;3.57;;;;;;;11.32;92.00;102613.53;4975394;28;20115;-96
2023/05/30 06:04:11;;;;;;;13.27;3.58;;;;;;;11.34;93.06;102611.44;4984707;28;20018;-96
2023/05/30 06:06:37;;;;;;;14.23;3.95;;;;;;;11.38;93.05;102617.22;4998581;28;20467;-96
2023/05/30 06:09:03;;;;;;;15.73;3.95;;;;;;;11.50;91.91;102612.75;4978236;28;20027;-96
2023/05/30 06:11:28;;;;;;;11.80;3.03;;;;;;;11.52;92.46;102617.91;4976166;28;20023;-96
2023/05/30 06:13:54;;;;;;;20.93;4.17;;;;;;;11.64;91.83;102613.47;4964101;28;20077;-94
2023/05/30 06:16:19;;;;;;;11.23;3.70;;;;;;;11.86;89.21;102613.06;4969250;28;20031;-96
2023/05/30 06:18:44;;;;;;;10.35;3.60;;;;;;;11.99;89.56;102625.53;4963201;28;20558;-96
2023/05/30 06:21:10;;;;;;;15.13;3.73;;;;;;;12.09;88.28;102619.66;4963394;28;20050;-95
2023/05/30 06:23:36;;;;;;;15.23;3.40;;;;;;;12.23;87.12;102626.50;4946691;28;20086;-94
2023/05/30 06:26:01;;;;;;;12.83;3.90;;;;;;;12.40;86.41;102625.91;4960832;28;20022;-95
2023/05/30 06:28:27;;;;;;;8.30;3.10;;;;;;;12.49;84.90;102627.22;4949555;28;20036;-93
2023/05/30 06:30:52;;;;;;;14.23;3.57;;;;;;;12.58;85.72;102625.06;4945301;28;20041;-92
2023/05/30 06:33:17;;;;;;;14.37;3.87;;;;;;;12.65;84.62;102630.34;4961110;28;20036;-93
2023/05/30 06:35:43;;;;;;;18.60;4.23;;;;;;;12.59;84.21;102633.94;4956640;28;20031;-92
2023/05/30 06:38:08;;;;;;;11.27;3.97;;;;;;;12.57;84.91;102629.63;4957116;29;20063;-92
2023/05/30 06:40:33;;;;;;;15.80;3.67;;;;;;;12.52;84.67;102621.41;4954698;28;20471;-92
2023/05/30 06:42:59;;;;;;;15.50;3.53;;;;;;;12.37;84.62;102613.72;4953148;28;20654;-93
2023/05/30 06:45:24;;;;;;;11.60;3.83;;;;;;;12.39;84.83;102625.09;4954613;29;20078;-93
2023/05/30 06:47:49;;;;;;;13.50;3.83;;;;;;;12.33;84.25;102598.28;4954867;28;20435;-91
2023/05/30 06:50:14;;;;;;;9.37;3.50;;;;;;;12.63;84.34;102619.81;4956537;29;20731;-93
2023/05/30 06:52:40;;;;;;;18.83;3.77;;;;;;;12.72;82.73;102631.09;4955608;29;20027;-91
2023/05/30 06:55:06;;;;;;;14.00;3.97;;;;;;;12.91;81.20;102625.66;4953237;28;20101;-93
2023/05/30 06:57:34;;;;;;;13.15;4.03;;;;;;;13.15;79.67;102615.75;4962669;28;20104;-93
2023/05/30 06:59:59;;;;;;;9.00;3.60;;;;;;;13.43;77.74;102633.97;4953531;28;20035;-92
2023/05/30 07:02:25;;;;;;;10.83;3.33;;;;;;;13.62;75.93;102631.16;4954464;28;20059;-96
2023/05/30 07:04:50;;;;;;;8.20;3.43;;;;;;;13.76;75.82;102637.16;4958802;28;20027;-93
2023/05/30 07:07:15;;;;;;;12.30;3.77;;;;;;;13.88;75.19;102627.16;4961553;28;20019;-92
2023/05/30 07:09:41;;;;;;;8.13;3.10;;;;;;;13.88;73.78;102631.72;4955049;28;20325;-95
2023/05/30 07:12:07;;;;;;;11.87;3.80;;;;;;;13.73;74.08;102634.91;4988943;23;20035;-91
2023/05/30 07:14:32;;;;;;;12.13;3.53;;;;;;;13.51;75.18;102634.69;4966330;28;20123;-96
2023/05/30 07:19:37;;;;;;;13.35;3.42;;;;;;;13.71;75.28;102629.75;5151410;23;20391;-96
2023/05/30 07:27:21;;;;;;;11.65;3.70;;;;;;;14.00;73.47;102618.22;5020911;23;20039;-96
2023/05/30 07:29:47;;;;;;;9.07;3.83;;;;;;;13.80;71.64;102615.94;4959696;29;20067;-94
2023/05/30 07:32:12;;;;;;;13.73;3.80;;;;;;;13.61;72.20;102629.53;4931332;29;20311;-96
2023/05/30 07:34:39;;;;;;;13.07;3.90;;;;;;;13.49;74.92;102645.69;4941295;29;20046;-95
2023/05/30 07:37:05;;;;;;;10.02;3.28;;;;;;;13.47;74.52;102645.09;4938709;29;20039;-95
2023/05/30 07:39:30;;;;;;;17.23;3.65;;;;;;;13.36;75.10;102646.69;4934469;29;20137;-95
2023/05/30 07:41:55;;;;;;;10.87;4.00;;;;;;;13.08;76.76;102647.31;4934613;29;20054;-96
2023/05/30 07:44:21;;;;;;;13.37;4.10;;;;;;;13.02;76.53;102649.06;4934007;29;20024;-93
2023/05/30 07:46:47;;;;;;;16.63;3.95;;;;;;;12.95;76.04;102648.34;4934446;29;20020;-93
2023/05/30 07:49:12;;;;;;;12.50;4.00;;;;;;;12.79;77.08;102656.00;4934255;29;20020;-92
2023/05/30 07:51:38;;;;;;;14.17;4.03;;;;;;;12.77;76.82;102647.38;4914707;29;20034;-94
2023/05/30 07:54:03;;;;;;;11.90;4.07;;;;;;;12.90;78.74;102653.59;4933910;29;20035;-93
2023/05/30 07:56:28;;;;;;;16.03;4.07;;;;;;;13.22;77.29;102642.56;4931383;29;20364;-91
2023/05/30 07:58:53;;;;;;;12.43;4.10;;;;;;;13.53;75.63;102644.16;4934389;29;20059;-92
2023/05/30 08:01:19;;;;;;;10.85;3.58;;;;;;;13.74;73.73;102623.88;4930272;29;20047;-92
2023/05/30 08:03:44;;;;;;;12.70;3.90;;;;;;;14.11;73.62;102638.97;4931754;29;20071;-92
2023/05/30 08:06:10;;;;;;;10.43;3.90;;;;;;;14.39;72.66;102630.13;4935915;29;20028;-93
2023/05/30 08:08:35;;;;;;;10.35;4.00;;;;;;;15.05;69.58;102637.00;4932718;29;20083;-92
2023/05/30 08:11:01;;;;;;;11.83;3.90;;;;;;;15.68;68.84;102625.28;4932274;29;20044;-93
2023/05/30 08:13:27;;;;;;;12.40;4.23;;;;;;;16.06;65.02;102645.28;4932002;29;20573;-94
2023/05/30 08:15:52;;;;;;;15.07;4.10;;;;;;;16.37;62.63;102644.81;4916850;29;20032;-95
2023/05/30 08:18:18;;;;;;;10.60;3.37;;;;;;;16.60;61.65;102641.84;4930117;29;20416;-95
2023/05/30 08:20:44;;;;;;;12.98;3.70;;;;;;;16.77;59.70;102633.63;4934306;29;20031;-94
2023/05/30 08:23:09;;;;;;;8.50;3.53;;;;;;;16.61;61.47;102639.97;4932694;29;20027;-94
2023/05/30 08:25:35;;;;;;;8.83;4.00;;;;;;;16.49;61.40;102632.78;4948694;29;20035;-93
2023/05/30 08:28:00;;;;;;;13.10;3.90;;;;;;;16.47;61.25;102639.53;4953056;29;20028;-92
2023/05/30 08:30:26;;;;;;;12.35;3.88;;;;;;;16.44;59.38;102635.44;4936958;29;20051;-93
2023/05/30 08:32:51;;;;;;;13.83;4.17;;;;;;;16.38;61.09;102635.63;4946040;29;20033;-95
2023/05/30 08:35:18;;;;;;;11.33;4.20;;;;;;;16.59;59.43;102632.09;4952168;28;20031;-96
2023/05/30 08:37:43;;;;;;;8.32;3.88;;;;;;;16.74;59.77;102636.03;4950214;29;20039;-93
2023/05/30 08:40:11;;;;;;;11.03;3.93;;;;;;;16.72;59.01;102627.34;4943471;29;20028;-91
2023/05/30 08:42:37;;;;;;;13.90;4.82;;;;;;;16.65;58.72;102635.66;4938816;29;20058;-91
2023/05/30 08:45:04;;;;;;;13.97;4.67;;;;;;;16.39;59.06;102621.88;4922379;29;20036;-92
2023/05/30 08:47:30;;;;;;;13.20;4.70;;;;;;;16.23;60.84;102623.56;4924565;29;20640;-91
2023/05/30 08:49:56;;;;;;;11.02;4.47;;;;;;;16.18;60.67;102627.03;4927581;29;20455;-91
2023/05/30 08:52:26;;;;;;;11.30;4.20;;;;;;;16.29;61.37;102625.28;4932815;29;20091;-91
2023/05/30 08:55:03;;;;;;;11.75;4.40;;;;;;;16.14;61.16;102619.69;4932635;29;20060;-91
2023/05/30 08:57:51;;;;;;;11.93;4.40;;;;;;;15.99;62.32;102614.91;4932568;29;20538;-90
2023/05/30 09:00:17;;;;;;;17.80;4.35;;;;;;;16.28;62.89;102617.41;4933788;29;20074;-90
2023/05/30 09:02:43;;;;;;;13.05;4.78;;;;;;;16.37;60.67;102606.94;4931518;29;20028;-91
2023/05/30 09:05:10;;;;;;;8.88;4.25;;;;;;;16.56;59.82;102615.56;4916502;29;20034;-91
2023/05/30 09:07:37;;;;;;;13.52;4.15;;;;;;;16.51;57.79;102602.81;4927853;29;20084;-91
2023/05/30 09:10:04;;;;;;;15.10;4.87;;;;;;;16.63;58.19;102610.75;4932156;29;20024;-93
2023/05/30 09:12:32;;;;;;;11.77;4.67;;;;;;;16.68;59.57;102613.50;4934854;29;20793;-93
2023/05/30 09:14:57;;;;;;;12.82;4.95;;;;;;;16.76;59.94;102610.34;4933908;29;20107;-92
2023/05/30 09:17:22;;;;;;;8.93;4.43;;;;;;;16.80;58.68;102616.88;4931985;29;20169;-93
2023/05/30 09:19:48;;;;;;;13.30;5.37;;;;;;;16.58;56.50;102608.81;4928773;29;20334;-94
2023/05/30 09:22:15;;;;;;;14.38;4.45;;;;;;;16.67;58.25;102611.06;4933080;29;20038;-92
2023/05/30 09:24:54;;;;;;;11.60;4.43;;;;;;;16.65;59.84;102603.19;4933230;29;20027;-93
2023/05/30 09:27:20;;;;;;;11.37;5.10;;;;;;;16.68;58.92;102602.69;4933962;29;20903;-93
2023/05/30 09:29:46;;;;;;;14.68;5.00;;;;;;;16.77;59.09;102593.03;4936500;29;20043;-93
2023/05/30 09:32:11;;;;;;;16.08;4.80;;;;;;;16.86;57.42;102593.38;4936983;29;20056;-93
2023/05/30 09:34:37;;;;;;;12.27;4.60;;;;;;;16.89;56.18;102600.16;4937269;29;20527;-92
2023/05/30 09:37:04;;;;;;;9.47;4.80;;;;;;;16.80;55.72;102594.41;4936669;29;20023;-93
2023/05/30 09:39:30;;;;;;;12.45;4.78;;;;;;;16.89;57.48;102603.69;4936921;29;20031;-93
2023/05/30 09:41:57;;;;;;;15.68;5.60;;;;;;;16.91;55.27;102596.13;4937014;29;20515;-94
2023/05/30 09:44:22;;;;;;;14.93;5.28;;;;;;;16.94;55.32;102589.38;4919985;29;20043;-93
2023/05/30 09:46:54;;;;;;;12.00;5.10;;;;;;;17.06;57.46;102584.63;4935737;29;20031;-93
2023/05/30 09:49:20;;;;;;;12.98;5.00;;;;;;;17.19;56.44;102591.50;4936859;29;20020;-93
2023/05/30 09:51:45;;;;;;;9.87;5.43;;;;;;;17.41;54.25;102583.25;4937487;29;20038;-93
2023/05/30 09:54:12;;;;;;;14.00;5.67;;;;;;;17.61;54.20;102591.78;4935404;29;20117;-93
2023/05/30 09:57:07;;;;;;;15.23;5.60;;;;;;;17.49;55.75;102573.00;4949315;23;20494;-93
2023/05/30 09:59:35;;;;;;;15.50;5.82;;;;;;;17.52;54.78;102550.81;4993105;28;20097;-92
2023/05/30 10:02:00;;;;;;;10.23;4.90;;;;;;;17.59;54.67;102556.78;4982059;28;20447;-92
2023/05/30 10:04:27;;;;;;;11.17;5.23;;;;;;;17.58;55.43;102566.00;4968235;28;20027;-91
2023/05/30 10:07:06;;;;;;;15.87;6.27;;;;;;;17.80;55.03;102571.25;4963920;28;20302;-90
2023/05/30 10:09:32;;;;;;;11.07;5.43;;;;;;;17.96;53.12;102574.03;4975505;28;20039;-88
2023/05/30 10:12:03;;;;;;;14.82;5.60;;;;;;;18.04;52.20;102572.75;4978570;28;20043;-90
2023/05/30 10:14:31;;;;;;;13.15;5.43;;;;;;;18.13;52.84;102571.13;4980503;28;20579;-92
2023/05/30 10:17:04;;;;;;;14.18;5.75;;;;;;;18.02;52.70;102575.69;4975671;28;20125;-88
2023/05/30 10:19:40;;;;;;;15.82;5.53;;;;;;;18.03;51.83;102565.69;4972839;28;20121;-89
2023/05/30 10:22:14;;;;;;;13.38;5.18;;;;;;;18.25;52.35;102569.00;4972147;28;20034;-90
2023/05/30 10:24:43;;;;;;;9.20;4.53;;;;;;;18.27;53.74;102572.25;4972543;28;20101;-91
2023/05/30 10:27:11;;;;;;;11.52;5.25;;;;;;;18.46;52.09;102579.88;4973900;28;20027;-91
2023/05/30 10:29:47;;;;;;;10.77;5.30;;;;;;;18.68;50.49;102570.69;4973640;28;20054;-90
2023/05/30 10:32:18;;;;;;;10.00;4.67;;;;;;;18.77;49.61;102566.34;4973010;28;20322;-90
2023/05/30 10:34:53;;;;;;;15.50;6.00;;;;;;;18.68;50.60;102563.38;4972857;28;20553;-90
2023/05/30 10:37:22;;;;;;;24.67;7.03;;;;;;;18.88;50.25;102564.47;4983008;28;20037;-88
2023/05/30 10:40:08;;;;;;;16.42;6.32;;;;;;;18.79;50.71;102566.06;4979692;28;20039;-96
2023/05/30 10:42:45;;;;;;;13.23;6.20;;;;;;;18.68;50.32;102571.50;4985011;28;20027;-95
2023/05/30 10:45:20;;;;;;;13.07;5.30;;;;;;;18.74;50.52;102569.63;4976671;28;20026;-91
2023/05/30 10:48:03;;;;;;;15.82;6.00;;;;;;;18.84;49.84;102558.75;4974574;28;20558;-90
2023/05/30 10:50:39;;;;;;;12.13;5.97;;;;;;;18.98;49.92;102547.38;4964424;28;20030;-89
2023/05/30 10:53:39;;;;;;;12.90;5.22;;;;;;;19.32;51.84;102549.50;4972211;28;20042;-90
2023/05/30 10:56:31;;;;;;;14.90;5.10;;;;;;;19.48;49.64;102550.25;4983139;28;20053;-92
2023/05/30 10:59:02;;;;;;;13.20;5.70;;;;;;;19.44;47.34;102538.31;4974145;28;20274;-91
2023/05/30 11:01:42;;;;;;;12.45;5.65;;;;;;;19.48;48.03;102523.06;4970349;28;20035;-91
2023/05/30 11:04:11;;;;;;;9.43;5.07;;;;;;;19.85;48.83;102526.44;5022171;23;20067;-95
2023/05/30 11:06:44;;;;;;;12.02;5.15;;;;;;;19.93;47.63;102534.88;4992995;28;20041;-94
2023/05/30 11:09:14;;;;;;;14.00;5.63;;;;;;;19.95;46.71;102537.28;4963508;28;20039;-94
2023/05/30 11:11:45;;;;;;;13.75;5.28;;;;;;;19.89;47.91;102533.78;4978226;28;20386;-93
2023/05/30 11:14:12;;;;;;;10.55;5.03;;;;;;;20.02;47.04;102532.38;4976549;28;20097;-93
2023/05/30 11:16:56;;;;;;;19.08;6.25;;;;;;;20.16;47.52;102543.47;4979443;28;20122;-93
2023/05/30 11:19:35;;;;;;;12.55;5.55;;;;;;;20.34;48.66;102533.00;4986285;28;20530;-92
2023/05/30 11:22:03;;;;;;;15.20;5.40;;;;;;;20.38;45.91;102534.88;4997392;28;20026;-95
2023/05/30 11:24:31;;;;;;;15.60;5.97;;;;;;;20.31;46.06;102518.03;4980558;28;20283;-94
2023/05/30 11:27:05;;;;;;;12.88;5.85;;;;;;;20.22;45.95;102530.63;4979270;28;20072;-95